Fort Grant, Arizona
Current Conditions -  °F | °C
As of 4:51 PM on Saturday 20 Dec 2014 (Local Time) from KSAD Reporting Station
Clear Clear  
Wind Chill: 53°   Ceiling: Unl
Heat Index: 53°   Visibility: 10mi
Dew Point: 34°   Wind: 0mph
Humidity: 48%   Direction: NA
Pressure: 30.07"   Gusts: NA
Location:  32.5598°N, 110.08°W
Report Text: KSAD 202351Z AUTO 00000KT 10SM CLR 12/01 A3007 RMK AO2 SLP174 T01170011 10133 20067 56010
Loading
Personal Weather Stations






























Interactive Weather Map New forecast layout! Learn more

10-Day Weather Forecast

Advertisements
Track Severe Weather on mobile